Time;durP1;ratioP1;P1;durP2;ratioP2;P2;SDS_P1;SDS_P2;PMS_P1;PMS_P2;Temp;Humidity;BMP_temperature;BMP_pressure;BME280_temperature;BME280_humidity;BME280_pressure;Samples;Min_cycle;Max_cycle;Signal;HPM_P1;HPM_P2
2023/05/08 00:00:26;;;;;;;21.17;19.52;;;;;;;15.60;100.00;101900.66;5074715;28;20467;-68
2023/05/08 00:02:52;;;;;;;23.20;21.20;;;;;;;15.60;100.00;101899.81;5073111;28;20486;-68
2023/05/08 00:05:17;;;;;;;22.17;20.48;;;;;;;15.59;100.00;101901.66;5074597;28;20021;-68
2023/05/08 00:07:43;;;;;;;21.83;20.02;;;;;;;15.60;100.00;101911.41;5074004;28;20146;-68
2023/05/08 00:10:09;;;;;;;21.73;20.00;;;;;;;15.55;100.00;101915.34;5107358;28;20468;-68
2023/05/08 00:12:37;;;;;;;23.25;21.40;;;;;;;15.52;100.00;101918.22;5074362;28;20043;-68
2023/05/08 00:15:03;;;;;;;23.13;21.30;;;;;;;15.45;100.00;101917.78;5074613;28;20024;-68
2023/05/08 00:17:29;;;;;;;23.23;21.33;;;;;;;15.44;100.00;101908.00;5073876;28;20072;-68
2023/05/08 00:19:54;;;;;;;23.45;21.77;;;;;;;15.42;100.00;101907.28;5106940;28;20056;-68
2023/05/08 00:22:20;;;;;;;24.15;22.33;;;;;;;15.42;100.00;101902.75;5073929;28;20064;-68
2023/05/08 00:24:46;;;;;;;23.23;21.35;;;;;;;15.39;100.00;101889.56;5074121;28;20044;-68
2023/05/08 00:27:11;;;;;;;24.17;22.38;;;;;;;15.52;100.00;101902.16;5106769;28;20386;-68
2023/05/08 00:29:39;;;;;;;23.77;22.00;;;;;;;15.44;100.00;101894.59;5074027;28;20032;-68
2023/05/08 00:32:07;;;;;;;24.35;22.35;;;;;;;15.40;100.00;101893.97;5073545;28;20028;-68
2023/05/08 00:34:35;;;;;;;23.95;21.85;;;;;;;15.44;100.00;101903.53;5072901;28;20479;-68
2023/05/08 00:37:02;;;;;;;25.58;23.30;;;;;;;15.38;100.00;101900.38;5105852;28;20016;-68
2023/05/08 00:39:27;;;;;;;23.85;21.95;;;;;;;15.39;100.00;101908.34;5074012;28;20434;-68
2023/05/08 00:41:55;;;;;;;24.25;22.08;;;;;;;15.35;100.00;101900.59;5073650;28;20025;-68
2023/05/08 00:44:20;;;;;;;24.00;22.20;;;;;;;15.41;100.00;101900.16;5089706;28;20434;-68
2023/05/08 00:46:46;;;;;;;24.98;23.15;;;;;;;15.35;100.00;101889.84;5105779;28;20021;-68
2023/05/08 00:49:13;;;;;;;25.23;23.23;;;;;;;15.39;100.00;101902.97;5073854;28;20030;-68
2023/05/08 00:51:44;;;;;;;26.00;24.13;;;;;;;15.32;100.00;101901.63;5073294;28;20028;-68
2023/05/08 00:54:10;;;;;;;24.92;22.77;;;;;;;15.35;100.00;101901.47;5073630;28;20383;-68
2023/05/08 00:56:36;;;;;;;25.17;23.25;;;;;;;15.39;100.00;101896.75;5088994;28;20031;-68
2023/05/08 00:59:06;;;;;;;25.30;23.20;;;;;;;15.35;100.00;101903.25;5106101;28;20063;-68
2023/05/08 01:01:33;;;;;;;26.40;24.10;;;;;;;15.39;100.00;101892.25;5105725;28;20544;-68
2023/05/08 01:03:59;;;;;;;25.67;23.77;;;;;;;15.45;100.00;101886.47;5105573;28;20024;-68
2023/05/08 01:06:24;;;;;;;24.00;22.08;;;;;;;15.24;100.00;101871.84;5072767;28;20066;-68
2023/05/08 01:08:50;;;;;;;25.10;23.05;;;;;;;15.35;100.00;101889.84;5073328;28;20054;-68
2023/05/08 01:11:28;;;;;;;25.08;23.08;;;;;;;15.24;100.00;101887.91;5072959;28;20024;-68
2023/05/08 01:14:08;;;;;;;24.00;22.02;;;;;;;15.27;100.00;101894.91;5073075;28;20492;-68
2023/05/08 01:17:01;;;;;;;24.10;22.15;;;;;;;15.32;100.00;101892.75;5072832;28;20085;-68
2023/05/08 01:19:42;;;;;;;25.13;23.17;;;;;;;15.25;100.00;101897.66;5105568;28;20107;-68
2023/05/08 01:22:32;;;;;;;24.38;22.25;;;;;;;15.29;100.00;101895.63;5072750;28;20028;-68
2023/05/08 01:25:25;;;;;;;22.55;20.75;;;;;;;15.29;100.00;101885.75;5072769;28;20052;-68
2023/05/08 01:28:12;;;;;;;24.08;22.17;;;;;;;15.26;100.00;101887.78;5105265;28;20033;-68
2023/05/08 01:30:58;;;;;;;25.08;23.20;;;;;;;15.16;100.00;101883.03;5072993;28;20040;-68
2023/05/08 01:33:34;;;;;;;24.08;22.15;;;;;;;15.20;100.00;101889.91;5072754;28;20070;-68
2023/05/08 01:36:11;;;;;;;24.55;22.63;;;;;;;15.13;100.00;101885.06;5072927;28;20063;-68
2023/05/08 01:38:45;;;;;;;24.02;22.02;;;;;;;15.17;100.00;101890.09;5105343;28;20032;-68
2023/05/08 01:41:20;;;;;;;23.83;22.02;;;;;;;15.23;100.00;101894.22;5072780;28;20107;-68
2023/05/08 01:43:53;;;;;;;24.30;22.42;;;;;;;15.13;100.00;101893.09;5072723;28;20095;-68
2023/05/08 01:46:24;;;;;;;24.15;22.40;;;;;;;15.14;100.00;101882.28;5071892;28;20023;-67
2023/05/08 01:48:59;;;;;;;24.27;22.48;;;;;;;15.16;100.00;101887.56;5072567;28;20597;-68
2023/05/08 01:51:27;;;;;;;25.45;23.20;;;;;;;15.15;100.00;101886.69;5072049;28;20023;-67
2023/05/08 01:54:03;;;;;;;23.58;21.38;;;;;;;15.21;100.00;101886.28;5071256;28;20032;-68
2023/05/08 01:56:29;;;;;;;24.33;22.38;;;;;;;15.07;100.00;101875.63;5072287;28;20024;-68
2023/05/08 01:58:57;;;;;;;26.30;24.20;;;;;;;15.22;100.00;101895.19;5072191;28;20090;-68
2023/05/08 02:01:24;;;;;;;27.00;24.80;;;;;;;15.16;100.00;101888.41;5104858;28;20029;-67
2023/05/08 02:03:51;;;;;;;26.13;23.95;;;;;;;15.15;100.00;101897.41;5072343;28;20048;-68
2023/05/08 02:06:19;;;;;;;26.35;23.98;;;;;;;15.12;100.00;101888.72;5071664;28;20035;-68
2023/05/08 02:08:46;;;;;;;24.90;22.75;;;;;;;15.16;100.00;101893.75;5104775;28;20384;-67
2023/05/08 02:11:15;;;;;;;25.77;23.77;;;;;;;15.12;100.00;101894.94;5104805;28;20459;-68
2023/05/08 02:13:43;;;;;;;26.60;24.20;;;;;;;15.17;100.00;101899.97;5104632;28;20061;-68
2023/05/08 02:16:10;;;;;;;25.60;23.70;;;;;;;15.07;100.00;101898.88;5072134;28;20102;-67
2023/05/08 02:18:42;;;;;;;25.10;23.15;;;;;;;15.02;100.00;101887.59;5072089;28;20029;-68
2023/05/08 02:21:10;;;;;;;24.88;22.92;;;;;;;15.14;100.00;101902.84;5104524;28;20028;-68
2023/05/08 02:23:37;;;;;;;25.42;23.33;;;;;;;15.13;100.00;101904.69;5104554;28;20025;-67
2023/05/08 02:26:03;;;;;;;25.00;23.00;;;;;;;15.07;100.00;101904.22;5072021;28;20032;-68
2023/05/08 02:28:31;;;;;;;25.30;23.20;;;;;;;15.04;100.00;101907.97;5070679;28;20087;-68
2023/05/08 02:30:57;;;;;;;26.30;24.30;;;;;;;15.07;100.00;101901.56;5072009;28;20103;-68
2023/05/08 02:33:26;;;;;;;26.75;24.42;;;;;;;14.99;100.00;101908.25;5071757;28;20032;-68
2023/05/08 02:35:55;;;;;;;27.00;24.27;;;;;;;14.97;100.00;101904.84;5104445;28;20059;-68
2023/05/08 02:38:22;;;;;;;26.63;24.42;;;;;;;14.96;100.00;101908.44;5071348;28;20056;-68
2023/05/08 02:40:56;;;;;;;27.52;25.20;;;;;;;15.01;100.00;101915.34;5071879;28;20078;-68
2023/05/08 02:43:24;;;;;;;28.02;25.73;;;;;;;14.97;100.00;101914.66;5071625;28;20477;-68
2023/05/08 02:46:02;;;;;;;26.95;24.88;;;;;;;14.98;100.00;101897.66;5071801;28;20379;-68
2023/05/08 02:48:37;;;;;;;30.43;25.63;;;;;;;14.98;100.00;101908.38;5071701;28;20032;-68
2023/05/08 02:51:16;;;;;;;26.80;24.50;;;;;;;15.04;100.00;101910.66;5071835;28;20511;-68
2023/05/08 02:53:51;;;;;;;27.55;25.25;;;;;;;15.02;100.00;101906.34;5104550;28;20031;-68
2023/05/08 02:56:38;;;;;;;29.50;27.20;;;;;;;15.04;100.00;101907.97;5071866;28;20507;-68
2023/05/08 02:59:15;;;;;;;27.17;24.98;;;;;;;14.98;100.00;101897.66;5075827;28;20411;-68
2023/05/08 03:02:00;;;;;;;27.20;24.88;;;;;;;14.92;100.00;101890.00;5108438;28;20135;-68
2023/05/08 03:04:31;;;;;;;28.90;26.60;;;;;;;14.92;100.00;101901.59;5075730;28;20032;-68
2023/05/08 03:06:58;;;;;;;29.48;26.90;;;;;;;14.90;100.00;101908.00;5075266;28;20012;-68
2023/05/08 03:09:27;;;;;;;29.90;27.33;;;;;;;14.93;100.00;101895.25;5108266;28;20021;-68
2023/05/08 03:12:01;;;;;;;30.70;28.15;;;;;;;14.92;100.00;101903.41;5107724;28;20028;-68
2023/05/08 03:14:29;;;;;;;29.88;27.38;;;;;;;14.85;100.00;101899.38;5075621;28;20543;-68
2023/05/08 03:16:56;;;;;;;28.60;26.05;;;;;;;14.87;100.00;101901.00;5090984;28;20037;-68
2023/05/08 03:19:29;;;;;;;30.02;27.63;;;;;;;14.84;100.00;101895.84;5075388;28;20024;-68
2023/05/08 03:21:56;;;;;;;29.90;27.42;;;;;;;14.84;100.00;101900.34;5074986;28;20028;-68
2023/05/08 03:24:24;;;;;;;28.98;26.48;;;;;;;14.74;100.00;101889.38;5075263;28;20044;-68
2023/05/08 03:26:50;;;;;;;28.55;26.45;;;;;;;14.76;100.00;101882.09;5107676;28;20029;-68
2023/05/08 03:29:17;;;;;;;29.27;26.88;;;;;;;14.74;100.00;101898.28;5074806;28;20351;-68
2023/05/08 03:31:43;;;;;;;28.98;26.67;;;;;;;14.78;100.00;101893.56;5074938;28;20502;-68
2023/05/08 03:34:11;;;;;;;28.15;25.80;;;;;;;14.75;100.00;101899.13;5075282;28;20025;-68
2023/05/08 03:36:37;;;;;;;30.08;27.35;;;;;;;14.82;100.00;101902.25;5074631;28;20040;-68
2023/05/08 03:39:03;;;;;;;30.15;27.52;;;;;;;14.80;100.00;101888.13;5074995;28;20029;-68
2023/05/08 03:41:29;;;;;;;28.88;26.38;;;;;;;14.69;100.00;101886.13;5073362;28;20070;-68
2023/05/08 03:44:00;;;;;;;29.98;27.63;;;;;;;14.63;100.00;101897.22;5075098;28;20031;-68
2023/05/08 03:46:26;;;;;;;29.65;27.23;;;;;;;14.65;100.00;101888.16;5107333;28;20029;-68
2023/05/08 03:48:53;;;;;;;29.52;26.95;;;;;;;14.68;100.00;101892.44;5074974;28;20023;-68
2023/05/08 03:51:21;;;;;;;30.27;27.90;;;;;;;14.55;100.00;101884.31;5106922;28;20032;-68
2023/05/08 03:53:46;;;;;;;29.23;26.77;;;;;;;14.51;100.00;101882.78;5090670;28;20036;-68
2023/05/08 03:56:12;;;;;;;27.15;25.05;;;;;;;14.61;100.00;101891.09;5107097;28;20020;-68
2023/05/08 03:58:42;;;;;;;29.77;27.38;;;;;;;14.60;100.00;101892.94;5107452;28;20115;-68
2023/05/08 04:01:11;;;;;;;29.42;26.95;;;;;;;14.61;100.00;101889.28;5107282;28;20032;-68
2023/05/08 04:03:39;;;;;;;27.52;24.98;;;;;;;14.61;100.00;101881.25;5107481;28;20031;-68
2023/05/08 04:06:45;;;;;;;28.88;26.50;;;;;;;14.73;100.00;101895.69;5107101;28;20040;-68
2023/05/08 04:09:34;;;;;;;28.55;26.25;;;;;;;14.71;100.00;101894.94;5032076;28;20021;-68
2023/05/08 04:12:20;;;;;;;32.65;29.65;;;;;;;14.62;100.00;101893.69;5073648;28;20044;-68
2023/05/08 04:14:52;;;;;;;30.10;27.20;;;;;;;14.60;100.00;101903.63;5074686;28;20032;-68
2023/05/08 04:17:27;;;;;;;30.98;28.38;;;;;;;14.57;100.00;101906.50;5072730;28;20066;-68
2023/05/08 04:20:02;;;;;;;30.77;28.23;;;;;;;14.60;100.00;101900.09;5074279;28;20070;-68
2023/05/08 04:22:31;;;;;;;30.52;28.00;;;;;;;14.56;100.00;101907.47;5072536;28;20491;-67
2023/05/08 04:25:02;;;;;;;30.63;28.13;;;;;;;14.59;100.00;101911.75;5106370;28;20411;-68
2023/05/08 04:27:28;;;;;;;30.33;27.63;;;;;;;14.60;100.00;101908.13;5106489;28;20098;-68
2023/05/08 04:29:55;;;;;;;31.48;28.77;;;;;;;14.57;100.00;101897.63;5074146;28;20028;-68
2023/05/08 04:32:27;;;;;;;29.23;26.83;;;;;;;14.67;100.00;101904.94;5106579;28;20032;-68
2023/05/08 04:34:54;;;;;;;29.25;26.80;;;;;;;14.60;100.00;101898.28;5074220;28;20383;-68
2023/05/08 04:37:27;;;;;;;29.55;26.75;;;;;;;14.64;100.00;101913.19;5073350;28;20060;-68
2023/05/08 04:39:55;;;;;;;29.25;26.85;;;;;;;14.65;100.00;101911.41;5073716;28;20024;-68
2023/05/08 04:42:20;;;;;;;28.83;26.15;;;;;;;14.69;100.00;101915.59;5073666;28;20052;-68
2023/05/08 04:44:49;;;;;;;27.92;25.88;;;;;;;14.69;100.00;101919.13;5073948;28;20412;-68
2023/05/08 04:47:14;;;;;;;29.48;27.17;;;;;;;14.72;100.00;101920.75;5073387;28;20020;-68
2023/05/08 04:49:40;;;;;;;28.70;26.17;;;;;;;14.70;100.00;101919.97;5073937;28;20094;-68
2023/05/08 04:52:06;;;;;;;30.55;28.10;;;;;;;14.83;100.00;101912.88;5073161;28;20036;-68
2023/05/08 04:54:32;;;;;;;30.67;28.08;;;;;;;14.75;100.00;101926.75;5073762;28;20451;-68
2023/05/08 04:56:57;;;;;;;32.60;29.67;;;;;;;14.74;100.00;101921.53;5073388;28;20060;-68
2023/05/08 04:59:23;;;;;;;32.60;29.92;;;;;;;14.83;100.00;101933.47;5072381;28;20074;-68
2023/05/08 05:01:49;;;;;;;32.63;30.02;;;;;;;14.76;100.00;101936.53;5105972;28;20111;-68
2023/05/08 05:04:15;;;;;;;30.30;27.88;;;;;;;14.77;100.00;101927.53;5106086;28;20070;-68
2023/05/08 05:06:40;;;;;;;32.88;30.13;;;;;;;14.82;100.00;101942.44;5073004;28;20032;-68
2023/05/08 05:09:08;;;;;;;33.58;30.67;;;;;;;14.82;100.00;101934.41;5105831;28;20077;-68
2023/05/08 05:11:33;;;;;;;33.17;30.50;;;;;;;14.84;100.00;101949.41;5073358;28;20016;-68
2023/05/08 05:13:59;;;;;;;31.55;28.95;;;;;;;14.87;100.00;101945.69;5073468;28;20525;-68
2023/05/08 05:16:26;;;;;;;34.50;31.65;;;;;;;14.87;100.00;101951.06;5105582;28;20424;-68
2023/05/08 05:18:52;;;;;;;34.50;31.80;;;;;;;14.84;100.00;101948.56;5072945;28;20116;-68
2023/05/08 05:21:17;;;;;;;34.03;31.23;;;;;;;14.85;100.00;101955.63;5104564;28;20031;-68
2023/05/08 05:23:43;;;;;;;36.70;33.70;;;;;;;14.83;100.00;101954.91;5072931;28;20024;-68
2023/05/08 05:26:08;;;;;;;35.63;32.38;;;;;;;14.87;100.00;101962.63;5072863;28;20047;-68
2023/05/08 05:28:33;;;;;;;37.95;34.65;;;;;;;14.82;100.00;101964.72;5105612;28;20537;-68
2023/05/08 05:30:59;;;;;;;37.20;34.05;;;;;;;14.86;100.00;101965.41;5073212;28;20020;-68
2023/05/08 05:33:24;;;;;;;38.47;35.22;;;;;;;14.89;100.00;101963.41;5072675;28;20020;-68
2023/05/08 05:35:50;;;;;;;37.83;34.63;;;;;;;14.88;100.00;101963.47;5072695;28;20052;-68
2023/05/08 05:38:15;;;;;;;36.80;33.70;;;;;;;14.94;100.00;101968.44;5087543;28;20028;-68
2023/05/08 05:40:41;;;;;;;37.58;34.08;;;;;;;14.94;100.00;101971.13;5105448;28;20135;-68
2023/05/08 05:43:06;;;;;;;40.35;36.83;;;;;;;14.93;100.00;101969.41;5105033;28;20111;-68
2023/05/08 05:45:31;;;;;;;38.70;35.20;;;;;;;14.92;100.00;101968.56;5105198;28;20035;-68
2023/05/08 05:47:57;;;;;;;38.80;35.30;;;;;;;15.02;100.00;101967.97;5072122;28;20008;-68
2023/05/08 05:50:22;;;;;;;40.00;36.47;;;;;;;15.02;100.00;101968.81;5071074;28;20024;-68
2023/05/08 05:52:48;;;;;;;41.08;37.17;;;;;;;15.05;100.00;101965.94;5071799;28;20047;-67
2023/05/08 05:55:13;;;;;;;43.30;39.20;;;;;;;15.09;100.00;101978.22;5072605;28;20070;-67
2023/05/08 05:57:39;;;;;;;42.75;38.75;;;;;;;15.10;100.00;101979.06;5072417;28;20029;-67
2023/05/08 06:00:05;;;;;;;43.63;39.55;;;;;;;15.12;100.00;101972.66;5071223;28;20029;-67
2023/05/08 06:02:32;;;;;;;44.47;40.28;;;;;;;15.15;100.00;101976.97;5072118;28;20483;-67
2023/05/08 06:05:01;;;;;;;43.75;39.55;;;;;;;15.11;100.00;101970.06;5104935;28;20027;-67
2023/05/08 06:07:26;;;;;;;43.70;39.30;;;;;;;15.14;100.00;101977.88;5071653;28;20017;-67
2023/05/08 06:09:52;;;;;;;46.03;41.55;;;;;;;15.16;100.00;101982.19;5072357;28;20051;-67
2023/05/08 06:12:20;;;;;;;44.80;40.75;;;;;;;15.14;100.00;101978.75;5104462;28;20020;-67
2023/05/08 06:14:46;;;;;;;48.78;44.13;;;;;;;15.16;100.00;101979.53;5104690;28;20028;-67
2023/05/08 06:17:11;;;;;;;48.00;43.60;;;;;;;15.19;100.00;101984.69;5071991;28;20050;-67
2023/05/08 06:19:37;;;;;;;48.65;44.33;;;;;;;15.17;100.00;101975.00;5071883;28;20020;-67
2023/05/08 06:22:02;;;;;;;50.90;46.15;;;;;;;15.16;100.00;101981.34;5103977;28;20073;-67
2023/05/08 06:24:28;;;;;;;49.97;45.38;;;;;;;15.20;100.00;101980.19;5104614;28;20053;-67
2023/05/08 06:26:53;;;;;;;49.47;44.90;;;;;;;15.14;100.00;101973.38;5071892;28;20025;-67
2023/05/08 06:29:19;;;;;;;50.00;45.30;;;;;;;15.18;100.00;101979.44;5071962;28;20498;-67
2023/05/08 06:31:44;;;;;;;49.28;44.72;;;;;;;15.19;100.00;101984.69;5071053;28;20134;-67
2023/05/08 06:34:10;;;;;;;49.50;44.83;;;;;;;15.20;100.00;101974.81;5104215;28;20035;-67
2023/05/08 06:36:35;;;;;;;49.67;45.03;;;;;;;15.27;100.00;101981.53;5071365;28;20024;-67
2023/05/08 06:39:04;;;;;;;48.60;44.03;;;;;;;15.30;100.00;101978.63;5104253;28;20028;-67
2023/05/08 06:41:30;;;;;;;50.40;45.70;;;;;;;15.36;100.00;101978.25;5071777;28;20122;-67
2023/05/08 06:43:55;;;;;;;51.90;47.10;;;;;;;15.40;100.00;101982.44;5071845;28;20491;-67
2023/05/08 06:46:21;;;;;;;53.53;47.97;;;;;;;15.42;100.00;101982.34;5071504;28;20472;-67
2023/05/08 06:48:46;;;;;;;52.53;47.20;;;;;;;15.47;100.00;101987.38;5071504;28;20025;-67
2023/05/08 06:51:11;;;;;;;54.22;48.92;;;;;;;15.48;100.00;101992.66;5071256;28;20078;-67
2023/05/08 06:53:37;;;;;;;52.63;47.65;;;;;;;15.52;100.00;101994.16;5071733;28;20017;-67
2023/05/08 06:56:05;;;;;;;52.60;47.45;;;;;;;15.54;100.00;102002.97;5071699;28;20028;-67
2023/05/08 06:58:31;;;;;;;52.67;47.67;;;;;;;15.52;100.00;101994.16;5103930;28;20070;-67
2023/05/08 07:01:03;;;;;;;53.90;48.75;;;;;;;15.56;100.00;102010.91;5071553;28;20357;-67
2023/05/08 07:03:28;;;;;;;53.20;48.05;;;;;;;15.56;100.00;102006.44;5103561;28;20028;-67
2023/05/08 07:05:54;;;;;;;60.08;53.85;;;;;;;15.52;100.00;102010.25;5071561;28;20028;-67
2023/05/08 07:08:20;;;;;;;57.28;51.38;;;;;;;15.49;100.00;101998.88;5103120;28;20056;-67
2023/05/08 07:10:45;;;;;;;57.80;51.83;;;;;;;15.55;100.00;102007.38;5071159;28;20023;-67
2023/05/08 07:13:10;;;;;;;56.42;50.75;;;;;;;15.52;100.00;102002.22;5070040;28;20051;-66
2023/05/08 07:15:37;;;;;;;58.40;52.45;;;;;;;15.54;100.00;102011.03;5068358;28;20388;-67
2023/05/08 07:18:05;;;;;;;58.53;52.65;;;;;;;15.55;100.00;102010.06;5069517;28;20033;-67
2023/05/08 07:20:30;;;;;;;58.22;52.17;;;;;;;15.57;100.00;102001.94;5068865;28;20074;-67
2023/05/08 07:22:56;;;;;;;58.03;52.35;;;;;;;15.53;100.00;102003.97;5069537;28;20028;-67
2023/05/08 07:25:21;;;;;;;58.03;52.22;;;;;;;15.59;100.00;102008.91;5069884;28;20078;-67
2023/05/08 07:27:47;;;;;;;55.70;50.20;;;;;;;15.60;100.00;102009.78;5068742;28;20035;-67
2023/05/08 07:30:12;;;;;;;54.42;48.85;;;;;;;15.53;100.00;101998.59;5069664;28;20070;-67
2023/05/08 07:32:40;;;;;;;52.90;47.83;;;;;;;15.55;100.00;101995.78;5070918;28;20499;-67
2023/05/08 07:35:08;;;;;;;53.67;48.47;;;;;;;15.64;100.00;102017.50;5071348;28;20029;-67
2023/05/08 07:37:34;;;;;;;51.83;46.80;;;;;;;15.62;100.00;102003.34;5069287;28;20024;-67
2023/05/08 07:39:59;;;;;;;51.97;46.67;;;;;;;15.72;100.00;102005.44;5071309;28;20051;-67
2023/05/08 07:42:25;;;;;;;51.08;46.33;;;;;;;15.74;100.00;102004.38;5070035;28;20025;-67
2023/05/08 07:44:50;;;;;;;47.10;42.50;;;;;;;15.78;100.00;102005.91;5074946;28;20111;-67
2023/05/08 07:47:16;;;;;;;49.67;44.83;;;;;;;15.85;100.00;101996.50;5073105;28;20020;-67
2023/05/08 07:49:43;;;;;;;47.88;43.33;;;;;;;15.90;100.00;102002.38;5075113;28;20027;-67
2023/05/08 07:52:11;;;;;;;47.45;42.85;;;;;;;15.99;100.00;101998.22;5074389;28;20025;-67
2023/05/08 07:54:39;;;;;;;45.38;40.80;;;;;;;16.04;100.00;102006.84;5074757;28;20360;-67
2023/05/08 07:57:07;;;;;;;46.53;42.00;;;;;;;16.10;100.00;101998.38;5074669;28;20025;-67
2023/05/08 07:59:32;;;;;;;48.03;43.03;;;;;;;16.28;100.00;102004.28;5107256;28;20028;-67
2023/05/08 08:01:58;;;;;;;45.60;41.13;;;;;;;16.32;100.00;102007.63;5106811;28;20458;-67
2023/05/08 08:04:23;;;;;;;43.88;39.78;;;;;;;16.34;100.00;102011.94;5074534;28;20463;-67
2023/05/08 08:06:49;;;;;;;43.00;38.97;;;;;;;16.45;100.00;102011.19;5074104;28;20032;-67
2023/05/08 08:09:14;;;;;;;42.17;38.08;;;;;;;16.49;100.00;102007.31;5074508;28;20027;-67
2023/05/08 08:11:40;;;;;;;41.13;37.30;;;;;;;16.58;100.00;102008.50;5074448;28;20020;-67
2023/05/08 08:14:05;;;;;;;41.83;37.92;;;;;;;16.59;100.00;102004.88;5074548;28;20472;-67
2023/05/08 08:16:30;;;;;;;40.20;36.55;;;;;;;16.68;100.00;102009.59;5073966;28;20025;-67
2023/05/08 08:18:56;;;;;;;40.40;36.80;;;;;;;16.61;100.00;102013.66;5074283;28;20023;-67
2023/05/08 08:21:24;;;;;;;40.33;36.58;;;;;;;16.67;100.00;102012.38;5073812;28;20046;-67
2023/05/08 08:23:49;;;;;;;42.00;37.85;;;;;;;16.57;98.63;102002.28;5074276;28;20028;-67
2023/05/08 08:26:15;;;;;;;40.10;36.15;;;;;;;16.57;99.27;102004.97;5074002;28;20044;-67
2023/05/08 08:28:40;;;;;;;40.38;36.60;;;;;;;16.71;100.00;102014.75;5106912;28;20024;-67
2023/05/08 08:31:06;;;;;;;43.55;39.28;;;;;;;16.75;100.00;102018.06;5073888;28;20055;-67
2023/05/08 08:33:31;;;;;;;43.53;39.47;;;;;;;16.73;100.00;102003.88;5073797;28;20062;-66
2023/05/08 08:35:56;;;;;;;43.10;39.15;;;;;;;16.77;100.00;102000.06;5074006;28;20486;-67
2023/05/08 08:38:22;;;;;;;43.05;38.80;;;;;;;16.85;100.00;101999.50;5105923;28;20025;-67
2023/05/08 08:40:47;;;;;;;43.13;39.08;;;;;;;16.93;100.00;102002.50;5073910;28;20445;-67
2023/05/08 08:43:13;;;;;;;41.25;37.42;;;;;;;17.02;99.46;102008.06;5073730;28;20027;-67
2023/05/08 08:45:38;;;;;;;39.53;36.05;;;;;;;17.14;99.72;102002.78;5073625;28;20028;-67
2023/05/08 08:48:07;;;;;;;39.63;36.05;;;;;;;17.14;97.42;101992.03;5073693;28;20438;-67
2023/05/08 08:50:35;;;;;;;38.65;35.25;;;;;;;17.45;97.47;102002.28;5073654;28;20495;-67
2023/05/08 08:53:09;;;;;;;39.00;35.60;;;;;;;17.42;94.37;102001.66;5105798;28;20107;-67
2023/05/08 08:55:41;;;;;;;38.53;35.17;;;;;;;17.54;95.89;102003.44;5072731;28;20021;-67
2023/05/08 08:58:39;;;;;;;39.55;35.85;;;;;;;17.50;97.11;101999.25;5105994;28;20479;-66
2023/05/08 09:01:06;;;;;;;39.03;35.42;;;;;;;17.43;96.23;102006.03;5057148;28;20393;-67
2023/05/08 09:03:32;;;;;;;39.70;36.20;;;;;;;17.32;97.28;102000.59;5073621;28;20301;-67
2023/05/08 09:06:01;;;;;;;38.88;35.38;;;;;;;17.19;96.67;102008.69;5106079;28;20028;-67
2023/05/08 09:08:27;;;;;;;41.28;37.60;;;;;;;17.25;96.36;102002.88;5072713;28;20021;-67
2023/05/08 09:10:56;;;;;;;42.78;38.75;;;;;;;17.21;97.09;102012.16;5072138;28;20028;-67
2023/05/08 09:13:21;;;;;;;41.42;37.67;;;;;;;17.21;97.30;102012.16;5073062;28;20024;-66
2023/05/08 09:15:49;;;;;;;42.50;38.50;;;;;;;17.24;97.06;102003.84;5105721;28;20032;-67
2023/05/08 09:18:14;;;;;;;43.42;39.55;;;;;;;17.20;97.88;102011.25;5071678;28;20050;-67
2023/05/08 09:20:40;;;;;;;43.05;39.28;;;;;;;17.19;96.82;102004.19;5072081;28;20074;-66
2023/05/08 09:23:06;;;;;;;43.63;39.65;;;;;;;17.21;96.89;102017.53;5072364;28;20469;-67
2023/05/08 09:25:45;;;;;;;43.95;39.83;;;;;;;17.28;96.67;102005.34;5104866;28;20416;-67
2023/05/08 09:28:23;;;;;;;46.72;42.47;;;;;;;17.33;97.03;102005.00;5105411;28;20091;-68
2023/05/08 09:30:51;;;;;;;45.38;41.10;;;;;;;17.29;95.93;102000.81;5071984;28;20027;-67
2023/05/08 09:33:17;;;;;;;46.13;41.75;;;;;;;17.33;97.14;102010.41;5072742;28;20478;-67
2023/05/08 09:35:43;;;;;;;49.17;44.47;;;;;;;17.30;97.73;101998.03;5072825;28;20042;-67
2023/05/08 09:38:08;;;;;;;49.75;44.75;;;;;;;17.31;95.96;102004.25;5072488;28;20111;-67
2023/05/08 09:40:33;;;;;;;50.58;45.33;;;;;;;17.33;98.56;102002.31;5072742;28;20036;-67
2023/05/08 09:43:14;;;;;;;53.83;48.30;;;;;;;17.34;98.69;102007.56;5104921;28;20437;-67
2023/05/08 09:45:41;;;;;;;53.25;47.55;;;;;;;17.28;99.10;101999.09;5072530;28;20082;-67
2023/05/08 09:48:07;;;;;;;56.25;50.30;;;;;;;17.32;100.00;102003.28;5071037;28;20012;-66
2023/05/08 09:50:33;;;;;;;58.80;52.47;;;;;;;17.27;99.15;101992.88;5072324;28;20485;-67
2023/05/08 09:52:58;;;;;;;56.33;50.65;;;;;;;17.25;99.23;101997.50;5071816;28;20028;-67
2023/05/08 09:55:23;;;;;;;57.72;50.58;;;;;;;17.23;98.83;102013.72;5072053;28;20024;-67
2023/05/08 09:58:02;;;;;;;58.22;52.13;;;;;;;17.25;100.00;102013.63;5071912;28;20456;-67
2023/05/08 10:00:28;;;;;;;58.38;51.95;;;;;;;17.23;98.48;102010.19;5072064;28;20032;-66
2023/05/08 10:02:55;;;;;;;57.42;51.38;;;;;;;17.30;97.92;102011.47;5104722;28;20016;-66
2023/05/08 10:05:30;;;;;;;57.35;51.35;;;;;;;17.36;98.53;102015.56;5104742;28;20075;-66
2023/05/08 10:07:59;;;;;;;56.20;50.15;;;;;;;17.32;95.96;102004.13;5071827;28;20013;-66
2023/05/08 10:10:29;;;;;;;58.22;51.85;;;;;;;17.31;95.73;102005.13;5104811;28;20067;-66
2023/05/08 10:12:56;;;;;;;58.05;51.50;;;;;;;17.50;95.61;102015.41;5104372;28;20048;-66
2023/05/08 10:15:23;;;;;;;57.28;51.22;;;;;;;17.53;95.96;102011.59;5104432;28;20024;-66
2023/05/08 10:17:59;;;;;;;60.20;53.03;;;;;;;17.59;96.12;102003.94;5054397;28;20043;-66
2023/05/08 10:20:28;;;;;;;57.83;51.60;;;;;;;17.64;95.40;102019.72;5104589;28;20028;-66
2023/05/08 10:22:56;;;;;;;60.80;53.35;;;;;;;17.62;95.11;102017.19;5071642;28;20107;-66
2023/05/08 10:25:22;;;;;;;59.00;52.50;;;;;;;17.66;96.66;102015.09;5071808;28;20445;-66
2023/05/08 10:28:02;;;;;;;56.70;50.50;;;;;;;17.58;94.71;102009.44;5071766;28;20096;-66
2023/05/08 10:30:29;;;;;;;59.35;52.58;;;;;;;17.58;94.33;102012.97;5071911;28;20032;-66
2023/05/08 10:32:59;;;;;;;56.67;50.45;;;;;;;17.57;92.37;102022.03;5071921;28;20028;-66
2023/05/08 10:35:25;;;;;;;56.50;50.53;;;;;;;17.57;92.68;102010.41;5071883;28;20035;-66
2023/05/08 10:37:51;;;;;;;58.00;49.70;;;;;;;17.56;91.68;102023.00;5071458;28;20139;-66
2023/05/08 10:40:20;;;;;;;55.47;49.17;;;;;;;17.55;91.96;102015.03;5070640;28;20476;-66
2023/05/08 10:42:46;;;;;;;55.25;49.10;;;;;;;17.65;92.18;102013.41;5071286;28;20491;-66
2023/05/08 10:45:12;;;;;;;57.50;49.35;;;;;;;17.73;92.30;102010.97;5087093;28;20058;-67
2023/05/08 10:47:50;;;;;;;56.13;48.50;;;;;;;17.76;92.38;102008.06;5071651;28;20099;-67
2023/05/08 10:50:26;;;;;;;54.60;48.67;;;;;;;17.81;91.34;102011.28;5069952;28;20111;-66
2023/05/08 10:53:23;;;;;;;58.13;50.30;;;;;;;17.91;92.06;102015.03;5069245;28;20025;-66
2023/05/08 10:55:50;;;;;;;69.35;58.20;;;;;;;17.92;93.40;102002.44;5071584;28;20490;-66
2023/05/08 10:58:22;;;;;;;69.50;57.60;;;;;;;18.02;94.33;102005.28;5071542;28;20020;-66
2023/05/08 11:00:58;;;;;;;65.03;57.20;;;;;;;18.12;94.92;102007.16;5071672;28;20039;-66
2023/05/08 11:03:25;;;;;;;67.57;58.30;;;;;;;18.21;92.97;102007.44;5071558;28;20387;-66
2023/05/08 11:05:55;;;;;;;64.75;54.92;;;;;;;18.21;89.63;101997.50;5070367;28;20380;-66
2023/05/08 11:08:28;;;;;;;63.63;54.75;;;;;;;18.30;90.17;101998.63;5070994;28;20024;-66
2023/05/08 11:11:05;;;;;;;63.78;53.53;;;;;;;18.52;91.71;102001.34;5070503;28;20036;-66